sensor_id;sensor_type;location;lat;lon;timestamp;P1;durP1;ratioP1;P2;durP2;ratioP2
8044;SDS011;4065;48.754;9.982;2023-09-08T00:00:35;10.25;;;6.20;;
8044;SDS011;4065;48.754;9.982;2023-09-08T00:03:57;6.93;;;6.22;;
8044;SDS011;4065;48.754;9.982;2023-09-08T00:07:19;6.93;;;6.18;;
8044;SDS011;4065;48.754;9.982;2023-09-08T00:10:42;7.50;;;5.95;;
8044;SDS011;4065;48.754;9.982;2023-09-08T00:14:04;10.20;;;6.45;;
8044;SDS011;4065;48.754;9.982;2023-09-08T00:17:26;9.85;;;6.80;;
8044;SDS011;4065;48.754;9.982;2023-09-08T00:20:48;8.90;;;6.28;;
8044;SDS011;4065;48.754;9.982;2023-09-08T00:24:09;8.93;;;6.38;;
8044;SDS011;4065;48.754;9.982;2023-09-08T00:27:34;10.15;;;6.18;;
8044;SDS011;4065;48.754;9.982;2023-09-08T00:30:56;7.75;;;6.15;;
8044;SDS011;4065;48.754;9.982;2023-09-08T00:34:20;8.45;;;6.10;;
8044;SDS011;4065;48.754;9.982;2023-09-08T00:37:42;7.70;;;6.28;;
8044;SDS011;4065;48.754;9.982;2023-09-08T00:41:04;9.63;;;6.70;;
8044;SDS011;4065;48.754;9.982;2023-09-08T00:44:27;7.68;;;6.82;;
8044;SDS011;4065;48.754;9.982;2023-09-08T00:47:49;8.63;;;6.72;;
8044;SDS011;4065;48.754;9.982;2023-09-08T00:51:11;8.35;;;6.63;;
8044;SDS011;4065;48.754;9.982;2023-09-08T00:54:33;6.90;;;6.20;;
8044;SDS011;4065;48.754;9.982;2023-09-08T00:57:55;8.60;;;7.05;;
8044;SDS011;4065;48.754;9.982;2023-09-08T01:01:20;8.38;;;6.30;;
8044;SDS011;4065;48.754;9.982;2023-09-08T01:04:43;7.70;;;6.90;;
8044;SDS011;4065;48.754;9.982;2023-09-08T01:08:06;8.80;;;6.50;;
8044;SDS011;4065;48.754;9.982;2023-09-08T01:11:28;10.00;;;6.80;;
8044;SDS011;4065;48.754;9.982;2023-09-08T01:14:50;9.13;;;7.63;;
8044;SDS011;4065;48.754;9.982;2023-09-08T01:18:14;10.02;;;7.00;;
8044;SDS011;4065;48.754;9.982;2023-09-08T01:21:41;7.38;;;6.65;;
8044;SDS011;4065;48.754;9.982;2023-09-08T01:25:14;7.65;;;6.68;;
8044;SDS011;4065;48.754;9.982;2023-09-08T01:28:42;8.70;;;7.85;;
8044;SDS011;4065;48.754;9.982;2023-09-08T01:32:05;8.82;;;7.43;;
8044;SDS011;4065;48.754;9.982;2023-09-08T01:35:27;8.88;;;7.45;;
8044;SDS011;4065;48.754;9.982;2023-09-08T01:38:49;9.55;;;7.47;;
8044;SDS011;4065;48.754;9.982;2023-09-08T01:42:12;7.45;;;6.50;;
8044;SDS011;4065;48.754;9.982;2023-09-08T01:45:34;9.82;;;7.30;;
8044;SDS011;4065;48.754;9.982;2023-09-08T01:48:56;7.53;;;6.65;;
8044;SDS011;4065;48.754;9.982;2023-09-08T01:52:18;7.28;;;6.57;;
8044;SDS011;4065;48.754;9.982;2023-09-08T01:55:40;7.75;;;7.05;;
8044;SDS011;4065;48.754;9.982;2023-09-08T01:59:03;7.75;;;6.95;;
8044;SDS011;4065;48.754;9.982;2023-09-08T02:02:25;7.68;;;6.18;;
8044;SDS011;4065;48.754;9.982;2023-09-08T02:05:47;8.32;;;7.00;;
8044;SDS011;4065;48.754;9.982;2023-09-08T02:09:08;7.10;;;6.43;;
8044;SDS011;4065;48.754;9.982;2023-09-08T02:12:31;8.10;;;7.07;;
8044;SDS011;4065;48.754;9.982;2023-09-08T02:15:54;8.70;;;7.40;;
8044;SDS011;4065;48.754;9.982;2023-09-08T02:19:16;8.23;;;7.38;;
8044;SDS011;4065;48.754;9.982;2023-09-08T02:22:38;9.85;;;6.70;;
8044;SDS011;4065;48.754;9.982;2023-09-08T02:26:00;8.27;;;7.35;;
8044;SDS011;4065;48.754;9.982;2023-09-08T02:29:22;7.70;;;6.90;;
8044;SDS011;4065;48.754;9.982;2023-09-08T02:32:45;8.45;;;7.65;;
8044;SDS011;4065;48.754;9.982;2023-09-08T02:36:07;8.75;;;7.15;;
8044;SDS011;4065;48.754;9.982;2023-09-08T02:39:29;11.50;;;7.65;;
8044;SDS011;4065;48.754;9.982;2023-09-08T02:42:54;7.32;;;6.60;;
8044;SDS011;4065;48.754;9.982;2023-09-08T02:46:16;11.65;;;7.32;;
8044;SDS011;4065;48.754;9.982;2023-09-08T02:49:39;12.77;;;7.32;;
8044;SDS011;4065;48.754;9.982;2023-09-08T02:53:01;9.20;;;6.78;;
8044;SDS011;4065;48.754;9.982;2023-09-08T02:56:23;8.90;;;7.32;;
8044;SDS011;4065;48.754;9.982;2023-09-08T02:59:48;8.32;;;7.43;;
8044;SDS011;4065;48.754;9.982;2023-09-08T03:03:11;7.35;;;6.65;;
8044;SDS011;4065;48.754;9.982;2023-09-08T03:06:34;8.30;;;6.95;;
8044;SDS011;4065;48.754;9.982;2023-09-08T03:09:56;9.10;;;6.90;;
8044;SDS011;4065;48.754;9.982;2023-09-08T03:13:18;8.77;;;6.53;;
8044;SDS011;4065;48.754;9.982;2023-09-08T03:16:40;7.65;;;6.85;;
8044;SDS011;4065;48.754;9.982;2023-09-08T03:20:02;9.68;;;7.63;;
8044;SDS011;4065;48.754;9.982;2023-09-08T03:23:29;7.60;;;6.80;;
8044;SDS011;4065;48.754;9.982;2023-09-08T03:26:51;8.07;;;7.28;;
8044;SDS011;4065;48.754;9.982;2023-09-08T03:30:13;8.43;;;6.90;;
8044;SDS011;4065;48.754;9.982;2023-09-08T03:33:34;8.85;;;7.32;;
8044;SDS011;4065;48.754;9.982;2023-09-08T03:36:56;8.15;;;7.22;;
8044;SDS011;4065;48.754;9.982;2023-09-08T03:40:19;7.82;;;7.07;;
8044;SDS011;4065;48.754;9.982;2023-09-08T03:43:41;7.35;;;6.63;;
8044;SDS011;4065;48.754;9.982;2023-09-08T03:47:03;7.97;;;7.18;;
8044;SDS011;4065;48.754;9.982;2023-09-08T03:50:25;9.18;;;7.53;;
8044;SDS011;4065;48.754;9.982;2023-09-08T03:53:47;12.50;;;7.60;;
8044;SDS011;4065;48.754;9.982;2023-09-08T03:57:10;9.73;;;7.72;;
8044;SDS011;4065;48.754;9.982;2023-09-08T04:00:32;8.90;;;7.88;;
8044;SDS011;4065;48.754;9.982;2023-09-08T04:03:54;9.27;;;7.32;;
8044;SDS011;4065;48.754;9.982;2023-09-08T04:07:16;8.32;;;7.53;;
8044;SDS011;4065;48.754;9.982;2023-09-08T04:10:38;8.50;;;7.70;;
8044;SDS011;4065;48.754;9.982;2023-09-08T04:14:01;8.88;;;7.88;;
8044;SDS011;4065;48.754;9.982;2023-09-08T04:17:23;9.25;;;8.30;;
8044;SDS011;4065;48.754;9.982;2023-09-08T04:20:45;8.27;;;7.45;;
8044;SDS011;4065;48.754;9.982;2023-09-08T04:24:07;7.97;;;6.95;;
8044;SDS011;4065;48.754;9.982;2023-09-08T04:27:30;8.70;;;7.75;;
8044;SDS011;4065;48.754;9.982;2023-09-08T04:30:54;12.38;;;8.18;;
8044;SDS011;4065;48.754;9.982;2023-09-08T04:34:16;11.60;;;7.50;;
8044;SDS011;4065;48.754;9.982;2023-09-08T04:37:38;8.45;;;7.43;;
8044;SDS011;4065;48.754;9.982;2023-09-08T04:41:00;8.73;;;7.70;;
8044;SDS011;4065;48.754;9.982;2023-09-08T04:44:24;8.25;;;7.45;;
8044;SDS011;4065;48.754;9.982;2023-09-08T04:47:47;8.27;;;7.47;;
8044;SDS011;4065;48.754;9.982;2023-09-08T04:51:10;9.98;;;8.27;;
8044;SDS011;4065;48.754;9.982;2023-09-08T04:54:31;8.40;;;7.60;;
8044;SDS011;4065;48.754;9.982;2023-09-08T04:57:53;10.68;;;8.20;;
8044;SDS011;4065;48.754;9.982;2023-09-08T05:01:15;9.40;;;8.05;;
8044;SDS011;4065;48.754;9.982;2023-09-08T05:04:38;8.88;;;7.95;;
8044;SDS011;4065;48.754;9.982;2023-09-08T05:08:00;12.02;;;7.65;;
8044;SDS011;4065;48.754;9.982;2023-09-08T05:11:22;10.23;;;8.63;;
8044;SDS011;4065;48.754;9.982;2023-09-08T05:14:44;10.05;;;8.82;;
8044;SDS011;4065;48.754;9.982;2023-09-08T05:18:06;9.13;;;7.90;;
8044;SDS011;4065;48.754;9.982;2023-09-08T05:21:30;9.13;;;7.68;;
8044;SDS011;4065;48.754;9.982;2023-09-08T05:24:52;8.93;;;8.02;;
8044;SDS011;4065;48.754;9.982;2023-09-08T05:28:13;9.20;;;8.20;;
8044;SDS011;4065;48.754;9.982;2023-09-08T05:31:35;8.50;;;7.60;;
8044;SDS011;4065;48.754;9.982;2023-09-08T05:34:57;10.35;;;8.40;;
8044;SDS011;4065;48.754;9.982;2023-09-08T05:38:20;9.45;;;7.28;;
8044;SDS011;4065;48.754;9.982;2023-09-08T05:41:42;10.55;;;8.23;;
8044;SDS011;4065;48.754;9.982;2023-09-08T05:45:04;8.63;;;7.70;;
8044;SDS011;4065;48.754;9.982;2023-09-08T05:48:27;8.52;;;7.63;;
8044;SDS011;4065;48.754;9.982;2023-09-08T05:51:49;13.50;;;8.25;;
8044;SDS011;4065;48.754;9.982;2023-09-08T05:55:12;8.23;;;7.28;;
8044;SDS011;4065;48.754;9.982;2023-09-08T05:58:34;8.13;;;7.28;;
8044;SDS011;4065;48.754;9.982;2023-09-08T06:01:56;9.50;;;7.20;;
8044;SDS011;4065;48.754;9.982;2023-09-08T06:05:18;8.57;;;7.15;;
8044;SDS011;4065;48.754;9.982;2023-09-08T06:08:40;8.02;;;7.22;;
8044;SDS011;4065;48.754;9.982;2023-09-08T06:12:04;8.60;;;6.60;;
8044;SDS011;4065;48.754;9.982;2023-09-08T06:15:27;8.48;;;6.25;;
8044;SDS011;4065;48.754;9.982;2023-09-08T06:18:50;7.30;;;6.30;;
8044;SDS011;4065;48.754;9.982;2023-09-08T06:22:12;9.00;;;7.20;;
8044;SDS011;4065;48.754;9.982;2023-09-08T06:25:34;8.80;;;7.90;;
8044;SDS011;4065;48.754;9.982;2023-09-08T06:28:57;10.25;;;7.85;;
8044;SDS011;4065;48.754;9.982;2023-09-08T06:32:19;9.13;;;7.75;;
8044;SDS011;4065;48.754;9.982;2023-09-08T06:35:41;12.52;;;9.27;;
8044;SDS011;4065;48.754;9.982;2023-09-08T06:39:03;9.02;;;7.75;;
8044;SDS011;4065;48.754;9.982;2023-09-08T06:42:25;10.73;;;9.13;;
8044;SDS011;4065;48.754;9.982;2023-09-08T06:45:48;11.48;;;9.18;;
8044;SDS011;4065;48.754;9.982;2023-09-08T06:49:12;9.40;;;8.43;;
8044;SDS011;4065;48.754;9.982;2023-09-08T06:52:34;11.45;;;8.95;;
8044;SDS011;4065;48.754;9.982;2023-09-08T06:55:59;9.57;;;8.57;;
8044;SDS011;4065;48.754;9.982;2023-09-08T06:59:21;11.68;;;8.90;;
8044;SDS011;4065;48.754;9.982;2023-09-08T07:02:44;12.00;;;9.50;;
8044;SDS011;4065;48.754;9.982;2023-09-08T07:06:06;8.90;;;8.02;;
8044;SDS011;4065;48.754;9.982;2023-09-08T07:09:27;10.63;;;8.15;;
8044;SDS011;4065;48.754;9.982;2023-09-08T07:12:49;10.57;;;8.65;;
8044;SDS011;4065;48.754;9.982;2023-09-08T07:16:11;9.25;;;8.05;;
8044;SDS011;4065;48.754;9.982;2023-09-08T07:19:35;9.43;;;8.43;;
8044;SDS011;4065;48.754;9.982;2023-09-08T07:22:56;9.05;;;7.68;;
8044;SDS011;4065;48.754;9.982;2023-09-08T07:26:18;8.68;;;7.75;;
8044;SDS011;4065;48.754;9.982;2023-09-08T07:29:40;9.05;;;7.28;;
8044;SDS011;4065;48.754;9.982;2023-09-08T07:33:02;9.40;;;7.50;;
8044;SDS011;4065;48.754;9.982;2023-09-08T07:36:26;9.82;;;7.47;;
8044;SDS011;4065;48.754;9.982;2023-09-08T07:39:51;8.25;;;7.32;;
8044;SDS011;4065;48.754;9.982;2023-09-08T07:43:12;9.88;;;7.65;;
8044;SDS011;4065;48.754;9.982;2023-09-08T07:46:34;10.32;;;7.70;;
8044;SDS011;4065;48.754;9.982;2023-09-08T07:53:42;8.68;;;7.70;;
8044;SDS011;4065;48.754;9.982;2023-09-08T07:57:04;11.25;;;7.68;;
8044;SDS011;4065;48.754;9.982;2023-09-08T08:00:28;8.25;;;6.97;;
8044;SDS011;4065;48.754;9.982;2023-09-08T08:03:50;10.30;;;7.28;;
8044;SDS011;4065;48.754;9.982;2023-09-08T08:07:12;8.45;;;7.10;;
8044;SDS011;4065;48.754;9.982;2023-09-08T08:10:37;9.07;;;7.03;;
8044;SDS011;4065;48.754;9.982;2023-09-08T08:13:59;11.63;;;6.95;;
8044;SDS011;4065;48.754;9.982;2023-09-08T08:17:21;8.25;;;7.15;;
8044;SDS011;4065;48.754;9.982;2023-09-08T08:20:43;8.77;;;6.82;;
8044;SDS011;4065;48.754;9.982;2023-09-08T08:24:05;9.25;;;6.50;;
8044;SDS011;4065;48.754;9.982;2023-09-08T08:27:28;8.32;;;7.25;;
8044;SDS011;4065;48.754;9.982;2023-09-08T08:30:51;8.07;;;6.55;;
8044;SDS011;4065;48.754;9.982;2023-09-08T08:34:13;9.90;;;6.40;;
8044;SDS011;4065;48.754;9.982;2023-09-08T08:37:35;7.57;;;6.82;;
8044;SDS011;4065;48.754;9.982;2023-09-08T08:41:01;7.38;;;6.07;;
8044;SDS011;4065;48.754;9.982;2023-09-08T08:44:25;7.28;;;6.20;;
8044;SDS011;4065;48.754;9.982;2023-09-08T08:47:47;8.10;;;6.22;;
8044;SDS011;4065;48.754;9.982;2023-09-08T08:51:10;7.30;;;5.68;;
8044;SDS011;4065;48.754;9.982;2023-09-08T08:54:33;8.05;;;6.10;;
8044;SDS011;4065;48.754;9.982;2023-09-08T08:57:55;7.82;;;6.00;;
8044;SDS011;4065;48.754;9.982;2023-09-08T09:01:24;7.55;;;5.85;;
8044;SDS011;4065;48.754;9.982;2023-09-08T09:04:46;8.10;;;5.70;;
8044;SDS011;4065;48.754;9.982;2023-09-08T09:08:12;9.40;;;6.25;;
8044;SDS011;4065;48.754;9.982;2023-09-08T09:11:34;8.38;;;6.10;;
8044;SDS011;4065;48.754;9.982;2023-09-08T09:14:57;7.93;;;5.93;;
8044;SDS011;4065;48.754;9.982;2023-09-08T09:18:21;7.88;;;5.82;;
8044;SDS011;4065;48.754;9.982;2023-09-08T09:21:44;6.75;;;5.80;;
8044;SDS011;4065;48.754;9.982;2023-09-08T09:25:08;7.80;;;5.80;;
8044;SDS011;4065;48.754;9.982;2023-09-08T09:28:31;8.90;;;6.07;;
8044;SDS011;4065;48.754;9.982;2023-09-08T09:31:53;7.28;;;5.50;;
8044;SDS011;4065;48.754;9.982;2023-09-08T09:35:17;6.70;;;5.28;;
8044;SDS011;4065;48.754;9.982;2023-09-08T09:38:39;7.63;;;5.60;;
8044;SDS011;4065;48.754;9.982;2023-09-08T09:42:01;6.80;;;5.68;;
8044;SDS011;4065;48.754;9.982;2023-09-08T09:45:24;9.75;;;5.47;;
8044;SDS011;4065;48.754;9.982;2023-09-08T09:48:46;7.88;;;5.72;;
8044;SDS011;4065;48.754;9.982;2023-09-08T09:52:20;9.07;;;5.82;;
8044;SDS011;4065;48.754;9.982;2023-09-08T09:55:46;9.80;;;5.65;;
8044;SDS011;4065;48.754;9.982;2023-09-08T09:59:08;5.95;;;5.35;;
8044;SDS011;4065;48.754;9.982;2023-09-08T10:02:33;6.53;;;5.30;;
8044;SDS011;4065;48.754;9.982;2023-09-08T10:05:55;7.88;;;5.95;;
8044;SDS011;4065;48.754;9.982;2023-09-08T10:09:18;8.95;;;5.65;;
8044;SDS011;4065;48.754;9.982;2023-09-08T10:12:41;6.18;;;5.57;;
8044;SDS011;4065;48.754;9.982;2023-09-08T10:16:04;6.40;;;5.80;;
8044;SDS011;4065;48.754;9.982;2023-09-08T10:19:27;6.68;;;5.65;;
8044;SDS011;4065;48.754;9.982;2023-09-08T10:22:50;6.22;;;5.45;;
8044;SDS011;4065;48.754;9.982;2023-09-08T10:26:17;7.25;;;6.03;;
8044;SDS011;4065;48.754;9.982;2023-09-08T10:29:40;11.45;;;6.07;;
8044;SDS011;4065;48.754;9.982;2023-09-08T10:33:02;6.72;;;5.65;;
8044;SDS011;4065;48.754;9.982;2023-09-08T10:36:24;7.15;;;5.65;;
8044;SDS011;4065;48.754;9.982;2023-09-08T10:39:46;6.47;;;5.07;;
8044;SDS011;4065;48.754;9.982;2023-09-08T10:43:14;6.18;;;5.47;;
8044;SDS011;4065;48.754;9.982;2023-09-08T10:46:39;7.45;;;5.60;;
8044;SDS011;4065;48.754;9.982;2023-09-08T10:50:01;7.88;;;5.97;;
8044;SDS011;4065;48.754;9.982;2023-09-08T10:53:25;7.20;;;6.18;;
8044;SDS011;4065;48.754;9.982;2023-09-08T10:56:48;6.13;;;5.53;;
8044;SDS011;4065;48.754;9.982;2023-09-08T11:00:18;6.18;;;5.57;;
8044;SDS011;4065;48.754;9.982;2023-09-08T11:03:44;6.07;;;5.50;;
8044;SDS011;4065;48.754;9.982;2023-09-08T11:07:09;7.07;;;5.57;;
8044;SDS011;4065;48.754;9.982;2023-09-08T11:10:31;6.50;;;5.80;;
8044;SDS011;4065;48.754;9.982;2023-09-08T11:13:55;10.48;;;6.45;;
8044;SDS011;4065;48.754;9.982;2023-09-08T11:17:18;6.78;;;5.85;;
8044;SDS011;4065;48.754;9.982;2023-09-08T11:20:42;7.95;;;5.57;;
8044;SDS011;4065;48.754;9.982;2023-09-08T11:24:05;7.53;;;6.05;;
8044;SDS011;4065;48.754;9.982;2023-09-08T11:27:27;6.93;;;6.22;;
8044;SDS011;4065;48.754;9.982;2023-09-08T11:30:50;6.97;;;5.65;;
8044;SDS011;4065;48.754;9.982;2023-09-08T11:34:13;7.18;;;5.60;;
8044;SDS011;4065;48.754;9.982;2023-09-08T11:37:38;7.50;;;5.90;;
8044;SDS011;4065;48.754;9.982;2023-09-08T11:41:01;8.45;;;5.57;;
8044;SDS011;4065;48.754;9.982;2023-09-08T11:44:24;7.22;;;6.47;;
8044;SDS011;4065;48.754;9.982;2023-09-08T11:47:46;6.65;;;5.88;;
8044;SDS011;4065;48.754;9.982;2023-09-08T11:51:11;6.75;;;5.95;;
8044;SDS011;4065;48.754;9.982;2023-09-08T11:54:33;6.25;;;5.65;;
8044;SDS011;4065;48.754;9.982;2023-09-08T11:57:56;10.38;;;6.07;;
8044;SDS011;4065;48.754;9.982;2023-09-08T12:01:19;6.10;;;5.50;;
8044;SDS011;4065;48.754;9.982;2023-09-08T12:04:41;6.70;;;5.40;;
8044;SDS011;4065;48.754;9.982;2023-09-08T12:08:05;9.10;;;5.55;;
8044;SDS011;4065;48.754;9.982;2023-09-08T12:11:31;6.63;;;5.43;;
8044;SDS011;4065;48.754;9.982;2023-09-08T12:14:55;8.52;;;5.82;;
8044;SDS011;4065;48.754;9.982;2023-09-08T12:18:17;5.47;;;4.97;;
8044;SDS011;4065;48.754;9.982;2023-09-08T12:21:53;6.20;;;5.60;;
8044;SDS011;4065;48.754;9.982;2023-09-08T12:25:17;5.70;;;4.72;;
8044;SDS011;4065;48.754;9.982;2023-09-08T12:28:39;5.88;;;4.72;;
8044;SDS011;4065;48.754;9.982;2023-09-08T12:32:05;5.88;;;4.90;;
8044;SDS011;4065;48.754;9.982;2023-09-08T12:35:27;5.72;;;4.57;;
8044;SDS011;4065;48.754;9.982;2023-09-08T12:38:49;5.78;;;5.10;;
8044;SDS011;4065;48.754;9.982;2023-09-08T12:42:15;9.07;;;5.25;;
8044;SDS011;4065;48.754;9.982;2023-09-08T12:45:40;6.25;;;5.50;;
8044;SDS011;4065;48.754;9.982;2023-09-08T12:49:01;8.00;;;5.97;;
8044;SDS011;4065;48.754;9.982;2023-09-08T12:52:23;9.30;;;5.35;;
8044;SDS011;4065;48.754;9.982;2023-09-08T12:55:45;6.45;;;5.30;;
8044;SDS011;4065;48.754;9.982;2023-09-08T12:59:09;7.07;;;6.38;;
8044;SDS011;4065;48.754;9.982;2023-09-08T13:02:31;6.80;;;5.22;;
8044;SDS011;4065;48.754;9.982;2023-09-08T13:05:53;6.43;;;5.70;;
8044;SDS011;4065;48.754;9.982;2023-09-08T13:09:15;8.63;;;5.72;;
8044;SDS011;4065;48.754;9.982;2023-09-08T13:12:38;7.22;;;5.55;;
8044;SDS011;4065;48.754;9.982;2023-09-08T13:16:02;6.68;;;5.82;;
8044;SDS011;4065;48.754;9.982;2023-09-08T13:19:24;6.25;;;5.65;;
8044;SDS011;4065;48.754;9.982;2023-09-08T13:22:46;6.35;;;5.75;;
8044;SDS011;4065;48.754;9.982;2023-09-08T13:26:08;6.25;;;5.65;;
8044;SDS011;4065;48.754;9.982;2023-09-08T13:29:30;5.60;;;5.10;;
8044;SDS011;4065;48.754;9.982;2023-09-08T13:32:53;7.00;;;5.55;;
8044;SDS011;4065;48.754;9.982;2023-09-08T13:36:16;6.22;;;5.40;;
8044;SDS011;4065;48.754;9.982;2023-09-08T13:39:38;7.22;;;5.40;;
8044;SDS011;4065;48.754;9.982;2023-09-08T13:43:00;7.18;;;5.28;;
8044;SDS011;4065;48.754;9.982;2023-09-08T13:46:21;8.30;;;5.40;;
8044;SDS011;4065;48.754;9.982;2023-09-08T13:49:45;7.35;;;5.70;;
8044;SDS011;4065;48.754;9.982;2023-09-08T13:53:07;6.22;;;5.63;;
8044;SDS011;4065;48.754;9.982;2023-09-08T13:56:29;8.55;;;5.60;;
8044;SDS011;4065;48.754;9.982;2023-09-08T13:59:52;9.07;;;5.80;;
8044;SDS011;4065;48.754;9.982;2023-09-08T14:03:14;11.10;;;5.63;;
8044;SDS011;4065;48.754;9.982;2023-09-08T14:06:39;8.45;;;5.80;;
8044;SDS011;4065;48.754;9.982;2023-09-08T14:10:01;7.78;;;6.20;;
8044;SDS011;4065;48.754;9.982;2023-09-08T14:13:27;8.75;;;6.63;;
8044;SDS011;4065;48.754;9.982;2023-09-08T14:16:49;6.95;;;6.03;;
8044;SDS011;4065;48.754;9.982;2023-09-08T14:20:11;8.95;;;6.22;;
8044;SDS011;4065;48.754;9.982;2023-09-08T14:23:35;7.53;;;5.75;;
8044;SDS011;4065;48.754;9.982;2023-09-08T14:26:58;7.38;;;5.95;;
8044;SDS011;4065;48.754;9.982;2023-09-08T14:30:20;7.20;;;6.05;;
8044;SDS011;4065;48.754;9.982;2023-09-08T14:33:42;8.27;;;6.20;;
8044;SDS011;4065;48.754;9.982;2023-09-08T14:37:05;8.13;;;5.93;;
8044;SDS011;4065;48.754;9.982;2023-09-08T14:40:29;7.13;;;6.35;;
8044;SDS011;4065;48.754;9.982;2023-09-08T14:43:50;6.53;;;5.93;;
8044;SDS011;4065;48.754;9.982;2023-09-08T14:47:12;7.00;;;6.30;;
8044;SDS011;4065;48.754;9.982;2023-09-08T14:50:34;7.90;;;6.10;;
8044;SDS011;4065;48.754;9.982;2023-09-08T14:53:56;8.32;;;6.28;;
8044;SDS011;4065;48.754;9.982;2023-09-08T14:57:19;7.00;;;6.15;;
8044;SDS011;4065;48.754;9.982;2023-09-08T15:00:41;7.47;;;6.50;;
8044;SDS011;4065;48.754;9.982;2023-09-08T15:04:04;9.40;;;7.18;;
8044;SDS011;4065;48.754;9.982;2023-09-08T15:07:26;7.93;;;6.82;;
8044;SDS011;4065;48.754;9.982;2023-09-08T15:10:49;9.73;;;6.95;;
8044;SDS011;4065;48.754;9.982;2023-09-08T15:14:12;8.18;;;7.30;;
8044;SDS011;4065;48.754;9.982;2023-09-08T15:17:34;10.57;;;6.75;;
8044;SDS011;4065;48.754;9.982;2023-09-08T15:20:56;7.43;;;6.72;;
8044;SDS011;4065;48.754;9.982;2023-09-08T15:24:18;9.95;;;7.22;;
8044;SDS011;4065;48.754;9.982;2023-09-08T15:27:40;10.07;;;6.53;;
8044;SDS011;4065;48.754;9.982;2023-09-08T15:31:04;7.72;;;6.75;;
8044;SDS011;4065;48.754;9.982;2023-09-08T15:34:27;8.93;;;7.15;;
8044;SDS011;4065;48.754;9.982;2023-09-08T15:37:48;7.75;;;6.95;;
8044;SDS011;4065;48.754;9.982;2023-09-08T15:41:19;7.97;;;6.57;;
8044;SDS011;4065;48.754;9.982;2023-09-08T15:44:41;9.63;;;7.15;;
8044;SDS011;4065;48.754;9.982;2023-09-08T15:48:05;9.13;;;6.63;;
8044;SDS011;4065;48.754;9.982;2023-09-08T15:51:27;7.60;;;6.88;;
8044;SDS011;4065;48.754;9.982;2023-09-08T15:54:49;8.13;;;7.30;;
8044;SDS011;4065;48.754;9.982;2023-09-08T15:58:10;8.05;;;7.25;;
8044;SDS011;4065;48.754;9.982;2023-09-08T16:01:32;10.43;;;7.18;;
8044;SDS011;4065;48.754;9.982;2023-09-08T16:04:56;10.75;;;7.53;;
8044;SDS011;4065;48.754;9.982;2023-09-08T16:08:17;7.47;;;6.78;;
8044;SDS011;4065;48.754;9.982;2023-09-08T16:11:39;7.78;;;6.95;;
8044;SDS011;4065;48.754;9.982;2023-09-08T16:15:01;7.72;;;7.03;;
8044;SDS011;4065;48.754;9.982;2023-09-08T16:18:23;7.22;;;6.53;;
8044;SDS011;4065;48.754;9.982;2023-09-08T16:21:47;7.80;;;7.10;;
8044;SDS011;4065;48.754;9.982;2023-09-08T16:25:09;7.82;;;6.82;;
8044;SDS011;4065;48.754;9.982;2023-09-08T16:28:31;8.23;;;6.47;;
8044;SDS011;4065;48.754;9.982;2023-09-08T16:31:53;7.97;;;6.63;;
8044;SDS011;4065;48.754;9.982;2023-09-08T16:35:15;7.35;;;6.50;;
8044;SDS011;4065;48.754;9.982;2023-09-08T16:38:38;8.80;;;6.70;;
8044;SDS011;4065;48.754;9.982;2023-09-08T16:42:00;9.07;;;7.13;;
8044;SDS011;4065;48.754;9.982;2023-09-08T16:45:22;12.38;;;7.47;;
8044;SDS011;4065;48.754;9.982;2023-09-08T16:48:44;7.63;;;6.82;;
8044;SDS011;4065;48.754;9.982;2023-09-08T16:52:06;9.48;;;7.47;;
8044;SDS011;4065;48.754;9.982;2023-09-08T16:55:29;7.65;;;6.85;;
8044;SDS011;4065;48.754;9.982;2023-09-08T16:58:51;8.40;;;6.78;;
8044;SDS011;4065;48.754;9.982;2023-09-08T17:02:13;7.93;;;7.00;;
8044;SDS011;4065;48.754;9.982;2023-09-08T17:05:35;7.15;;;6.45;;
8044;SDS011;4065;48.754;9.982;2023-09-08T17:08:56;8.27;;;6.95;;
8044;SDS011;4065;48.754;9.982;2023-09-08T17:12:20;7.03;;;6.40;;
8044;SDS011;4065;48.754;9.982;2023-09-08T17:15:42;8.10;;;6.55;;
8044;SDS011;4065;48.754;9.982;2023-09-08T17:19:04;8.57;;;7.40;;
8044;SDS011;4065;48.754;9.982;2023-09-08T17:22:26;9.63;;;8.00;;
8044;SDS011;4065;48.754;9.982;2023-09-08T17:25:48;10.55;;;8.00;;
8044;SDS011;4065;48.754;9.982;2023-09-08T17:29:12;8.07;;;7.25;;
8044;SDS011;4065;48.754;9.982;2023-09-08T17:32:35;8.82;;;7.40;;
8044;SDS011;4065;48.754;9.982;2023-09-08T17:35:57;8.73;;;6.88;;
8044;SDS011;4065;48.754;9.982;2023-09-08T17:39:19;8.40;;;7.60;;
8044;SDS011;4065;48.754;9.982;2023-09-08T17:42:41;11.48;;;8.60;;
8044;SDS011;4065;48.754;9.982;2023-09-08T17:46:05;12.32;;;7.53;;
8044;SDS011;4065;48.754;9.982;2023-09-08T17:49:28;8.43;;;7.50;;
8044;SDS011;4065;48.754;9.982;2023-09-08T17:52:49;9.35;;;7.05;;
8044;SDS011;4065;48.754;9.982;2023-09-08T17:56:11;12.18;;;7.82;;
8044;SDS011;4065;48.754;9.982;2023-09-08T17:59:34;9.05;;;8.15;;
8044;SDS011;4065;48.754;9.982;2023-09-08T18:02:57;8.98;;;8.10;;
8044;SDS011;4065;48.754;9.982;2023-09-08T18:06:19;10.38;;;8.50;;
8044;SDS011;4065;48.754;9.982;2023-09-08T18:09:41;9.63;;;8.63;;
8044;SDS011;4065;48.754;9.982;2023-09-08T18:13:03;10.00;;;8.60;;
8044;SDS011;4065;48.754;9.982;2023-09-08T18:16:25;9.40;;;8.48;;
8044;SDS011;4065;48.754;9.982;2023-09-08T18:19:48;12.20;;;9.25;;
8044;SDS011;4065;48.754;9.982;2023-09-08T18:23:10;10.00;;;8.98;;
8044;SDS011;4065;48.754;9.982;2023-09-08T18:26:32;10.10;;;9.00;;
8044;SDS011;4065;48.754;9.982;2023-09-08T18:29:54;10.45;;;9.45;;
8044;SDS011;4065;48.754;9.982;2023-09-08T18:33:15;9.65;;;8.57;;
8044;SDS011;4065;48.754;9.982;2023-09-08T18:36:39;10.95;;;9.60;;
8044;SDS011;4065;48.754;9.982;2023-09-08T18:40:00;11.35;;;10.25;;
8044;SDS011;4065;48.754;9.982;2023-09-08T18:43:23;13.23;;;9.15;;
8044;SDS011;4065;48.754;9.982;2023-09-08T18:46:45;12.52;;;10.95;;
8044;SDS011;4065;48.754;9.982;2023-09-08T18:50:07;15.35;;;11.55;;
8044;SDS011;4065;48.754;9.982;2023-09-08T18:53:31;13.55;;;10.82;;
8044;SDS011;4065;48.754;9.982;2023-09-08T18:56:54;13.20;;;11.68;;
8044;SDS011;4065;48.754;9.982;2023-09-08T19:00:18;10.55;;;9.52;;
8044;SDS011;4065;48.754;9.982;2023-09-08T19:03:40;14.65;;;9.15;;
8044;SDS011;4065;48.754;9.982;2023-09-08T19:07:02;14.10;;;9.80;;
8044;SDS011;4065;48.754;9.982;2023-09-08T19:10:25;12.82;;;9.80;;
8044;SDS011;4065;48.754;9.982;2023-09-08T19:13:48;12.30;;;11.00;;
8044;SDS011;4065;48.754;9.982;2023-09-08T19:17:10;12.48;;;11.13;;
8044;SDS011;4065;48.754;9.982;2023-09-08T19:20:32;19.85;;;13.45;;
8044;SDS011;4065;48.754;9.982;2023-09-08T19:23:55;12.15;;;10.35;;
8044;SDS011;4065;48.754;9.982;2023-09-08T19:27:18;12.52;;;10.63;;
8044;SDS011;4065;48.754;9.982;2023-09-08T19:30:44;12.27;;;10.13;;
8044;SDS011;4065;48.754;9.982;2023-09-08T19:34:07;11.80;;;10.48;;
8044;SDS011;4065;48.754;9.982;2023-09-08T19:37:29;11.32;;;10.18;;
8044;SDS011;4065;48.754;9.982;2023-09-08T19:40:59;10.98;;;9.70;;
8044;SDS011;4065;48.754;9.982;2023-09-08T19:44:23;11.90;;;10.63;;
8044;SDS011;4065;48.754;9.982;2023-09-08T19:47:45;11.35;;;9.77;;
8044;SDS011;4065;48.754;9.982;2023-09-08T19:51:07;10.40;;;9.38;;
8044;SDS011;4065;48.754;9.982;2023-09-08T19:54:29;11.95;;;9.93;;
8044;SDS011;4065;48.754;9.982;2023-09-08T19:57:51;12.07;;;9.57;;
8044;SDS011;4065;48.754;9.982;2023-09-08T20:01:14;11.25;;;9.80;;
8044;SDS011;4065;48.754;9.982;2023-09-08T20:04:37;12.45;;;10.52;;
8044;SDS011;4065;48.754;9.982;2023-09-08T20:07:59;11.63;;;10.52;;
8044;SDS011;4065;48.754;9.982;2023-09-08T20:11:22;10.93;;;9.82;;
8044;SDS011;4065;48.754;9.982;2023-09-08T20:14:44;11.90;;;10.02;;
8044;SDS011;4065;48.754;9.982;2023-09-08T20:18:08;11.00;;;10.00;;
8044;SDS011;4065;48.754;9.982;2023-09-08T20:21:30;10.95;;;9.80;;
8044;SDS011;4065;48.754;9.982;2023-09-08T20:24:52;10.93;;;9.82;;
8044;SDS011;4065;48.754;9.982;2023-09-08T20:28:14;11.50;;;10.43;;
8044;SDS011;4065;48.754;9.982;2023-09-08T20:31:35;11.32;;;10.13;;
8044;SDS011;4065;48.754;9.982;2023-09-08T20:34:59;13.50;;;11.05;;
8044;SDS011;4065;48.754;9.982;2023-09-08T20:38:21;14.43;;;11.32;;
8044;SDS011;4065;48.754;9.982;2023-09-08T20:41:42;15.98;;;11.75;;
8044;SDS011;4065;48.754;9.982;2023-09-08T20:45:05;11.88;;;10.68;;
8044;SDS011;4065;48.754;9.982;2023-09-08T20:48:27;12.52;;;10.73;;
8044;SDS011;4065;48.754;9.982;2023-09-08T20:51:51;11.93;;;10.43;;
8044;SDS011;4065;48.754;9.982;2023-09-08T20:55:13;11.32;;;10.13;;